With the market sense app you can inspect and search through your Inventory. It's an easy way to make space, organize yourself and find out if you have any useful items you forgot about. Also don't forget to check out how to get Sales Notifications sent to your discord account by clicking here.

Kudzu Cap of Crafting

Server: Exodus

DataCenter Prices
Last Updated: 5/8/19 6:29:45 AM
Search Category: Head, Item Category: Head
Sell price to vendor: 259

Garland Link

4 99,585 99,585 0 0 0 0

Level 65 Weaver Recipe for Kudzu Cap of Crafting

Wind Crystal 4 177 708
Lightning Crystal 4 117 468
Star Ruby 1 1,075 1,075
Durium Nugget 1 3,499 3,499
Ruby Cotton Yarn 1 2,000 2,000
Kudzu Cloth 2 9,780 19,560
Cock Feather 3 90 270

Total Price to Craft 1 : 27,580

Profit/Loss Normal = -7,581

Profit/Loss HQ = 42,705

Desynthesizes into:

Star Ruby
Lightning Crystal
Wind Crystal

Current Prices

HQ 99,585 1 99,585
HQ 110,000 1 110,000
HQ 110,000 1 110,000
HQ 120,000 1 120,000

Price History

HQ 130,500 1 130,500 07/04/2018 07:37:56 131751634760000000
HQ 180,000 1 180,000 07/05/2018 15:35:49 131752785490000000
HQ 180,000 1 180,000 Ayame Ruttabaga 07/05/2018 15:35:49 131752785490000000
HQ 99,000 1 99,000 07/10/2018 17:55:54 131757189540000000
HQ 99,000 1 99,000 Rosalind Outlaw 07/10/2018 17:55:54 131757189540000000
HQ 130,285 1 130,285 07/14/2018 13:49:04 131760497440000000
HQ 130,285 1 130,285 Korven Dallas 07/14/2018 13:49:04 131760497440000000
HQ 130,285 1 130,285 07/15/2018 06:15:46 131761089460000000
HQ 130,285 1 130,285 Leromn Atelerix 07/15/2018 06:15:46 131761089460000000
HQ 160,000 1 160,000 07/23/2018 18:41:38 131768448980000000
HQ 160,000 1 160,000 Camellia Setsugekka 07/23/2018 18:41:38 131768448980000000
HQ 170,000 1 170,000 07/27/2018 14:57:40 131771770600000000
HQ 170,000 1 170,000 Lilinaris Akanath 07/27/2018 14:57:40 131771770600000000
100,000 1 100,000 07/29/2018 01:17:09 131773006290000000
100,000 1 100,000 Panda Puff 07/29/2018 01:17:09 131773006290000000
HQ 168,000 1 168,000 07/29/2018 04:19:32 131773115720000000
HQ 168,000 1 168,000 Camellia Setsugekka 07/29/2018 04:19:32 131773115720000000
HQ 200,000 1 200,000 08/01/2018 03:27:27 131775676470000000
HQ 200,000 1 200,000 Abe Bull 08/01/2018 03:27:27 131775676470000000
HQ 19,000 1 19,000 08/02/2018 02:25:22 131776503220000000
HQ 19,000 1 19,000 Citrus-free Marmalade 08/02/2018 02:25:22 131776503220000000
HQ 190,000 1 190,000 08/04/2018 17:59:02 131778791420000000
HQ 190,000 1 190,000 Juan Manjarrez 08/04/2018 17:59:02 131778791420000000
10,000 1 10,000 08/15/2018 01:39:22 131787707620000000
10,000 1 10,000 Aether Ocean 08/15/2018 01:39:22 131787707620000000
70,259 1 70,259 08/15/2018 15:37:41 131788210610000000
70,259 1 70,259 Smoke Haze 08/15/2018 15:37:41 131788210610000000
HQ 124,000 1 124,000 08/27/2018 21:08:37 131798777170000000
HQ 124,000 1 124,000 Abe Bull 08/27/2018 21:08:37 131798777170000000
HQ 125,283 1 125,283 08/30/2018 05:46:10 131800815700000000
HQ 125,283 1 125,283 Fifi Usiu 08/30/2018 05:46:10 131800815700000000
10,259 1 10,259 09/06/2018 09:10:26 131806986260000000
10,259 1 10,259 Galinor Durandai 09/06/2018 09:10:26 131806986260000000
HQ 65,000 1 65,000 09/16/2018 01:01:26 131815332860000000
HQ 65,000 1 65,000 Kaylem Highwind 09/16/2018 01:01:26 131815332860000000
14,259 1 14,259 09/22/2018 03:02:07 131820589270000000
14,259 1 14,259 Shaka Au 09/22/2018 03:02:07 131820589270000000
16,000 1 16,000 09/22/2018 07:28:27 131820749070000000
16,000 1 16,000 Jerzhucka Kinhuan 09/22/2018 07:28:27 131820749070000000
10,000 1 10,000 Rhaq'a Riobren 09/28/2018 06:02:52 131825881720000000
25,000 1 25,000 Oki Kagon 09/30/2018 07:28:04 131827660840000000
16,000 1 16,000 Ohelea Moone 10/08/2018 16:21:14 131834892740000000
16,000 1 16,000 Snow Minx 10/08/2018 22:55:18 131835129180000000
49,959 1 49,959 Templar Jeezuz 11/02/2018 23:19:25 131856743650000000
HQ 144,100 1 144,100 Airi Baan 11/10/2018 02:37:33 131862910530000000
20,000 1 20,000 Nima Stormquell 11/11/2018 23:38:38 131864531180000000
HQ 143,082 1 143,082 Sita Del'raton 11/19/2018 16:29:08 131871185480000000
49,959 1 49,959 Neojin Virtue 12/05/2018 04:32:20 131884579400000000
HQ 130,000 1 130,000 Aero Ventus 12/23/2018 12:09:43 131900405830000000
HQ 129,999 1 129,999 Snow Minx 12/26/2018 01:19:11 131902607510000000
33,988 1 33,988 Basically Potato 12/31/2018 11:41:14 131907300740000000
34,000 1 34,000 Enter Machina 01/01/2019 21:57:47 131908534670000000
33,000 1 33,000 Happy Flapjacks 01/04/2019 13:52:52 131910835720000000
33,000 1 33,000 Fenrir Iceblood 01/10/2019 21:23:02 131916289820000000
33,000 1 33,000 Rowan Thorn 01/11/2019 16:28:17 131916976970000000
31,899 1 31,899 Jasmine Surell 01/19/2019 06:05:48 131923515480000000
20,000 1 20,000 Alice Prescott 01/21/2019 04:37:58 131925190780000000
33,999 1 33,999 Azazel Alastor 01/21/2019 23:18:32 131925863120000000
HQ 70,000 1 70,000 Tofu Pope 01/23/2019 22:10:24 131927550240000000
49,259 1 49,259 Haylan Weaver 01/27/2019 03:26:51 131930332110000000
HQ 125,000 1 125,000 Phyrexia Shiva 01/31/2019 03:18:18 131933782980000000
50,000 1 50,000 Loki Aldeno 01/31/2019 04:21:59 131933821190000000
HQ 123,285 1 123,285 Raine Whitewind 02/08/2019 02:27:54 131940664740000000
45,000 1 45,000 Eternal Rage 02/09/2019 05:02:53 131941621730000000
50,000 1 50,000 Tristan Taliesin 02/09/2019 22:32:22 131942251420000000
90,259 1 90,259 Alaiis Cynemaer 02/11/2019 08:39:31 131943479710000000
HQ 124,999 1 124,999 Zeo Herk 02/13/2019 02:13:10 131944975900000000
14,259 1 14,259 Chugglas Douglas 02/14/2019 21:53:46 131946548260000000
15,000 1 15,000 Azena Kodakumi 02/15/2019 20:40:40 131947368400000000
HQ 130,000 1 130,000 Sparrow Odele 02/19/2019 00:38:58 131950103380000000
HQ 100,000 1 100,000 Sindel Lestrai 03/14/2019 18:56:26 131970633860000000
HQ 100,000 1 100,000 Katilyst Perennius 03/15/2019 05:43:58 131971022380000000
2,195 1 2,195 Alaiis Cynemaer 03/24/2019 02:51:25 131978694850000000
HQ 100,000 1 100,000 Arkyen Ortiz 03/26/2019 18:29:38 131980985780000000
HQ 80,000 1 80,000 Cry Walker 03/28/2019 06:07:19 131982268390000000
5,000 1 5,000 Layla Braekhaus 03/28/2019 23:41:29 131982900890000000
HQ 80,000 1 80,000 Shado Len 03/30/2019 00:15:55 131983785550000000
9,999 1 9,999 Evelyn Nyx 03/31/2019 03:46:59 131984776190000000
10,000 1 10,000 Sora Misha 03/31/2019 12:26:38 131985087980000000
HQ 99,500 1 99,500 Tama Sabbath 04/03/2019 06:32:06 131987467260000000
HQ 109,285 1 109,285 Mariella Joplin 04/10/2019 22:30:13 131994090130000000
11,000 1 11,000 Jane Starcaller 04/12/2019 21:19:59 131995775990000000
HQ 39,999 1 39,999 Dumb Kid 04/15/2019 00:54:43 131997632830000000
19,999 1 19,999 Koko Nokino 04/15/2019 08:40:48 131997912480000000
HQ 70,285 1 70,285 Sophiya Frostsong 04/19/2019 22:11:13 132001854730000000

Exodus Cross Server Data for Kudzu Cap of Crafting on Primal

Behemoth 20,000 6 149,900 20,000 26,999 -20,000 26,999 26,999 1 3/23/19 5:19:43 AM
Excalibur 44,994 5 44,994 90,000 58,637 -44,994 59,990 117,275 2 5/5/19 7:31:34 AM
Exodus 99,585 4 99,585 0 0 0 0 0 0 5/8/19 6:29:45 AM
Famfrit 62,000 13 99,999 62,000 0 0 0 0 0 2/26/19 1:50:12 AM
Hyperion 48,999 9 68,000 48,999 0 0 0 0 0 5/19/19 1:25:28 PM
Lamia 37,900 2 0 37,900 37,000 -37,900 37,000 37,000 1 4/14/19 10:06:00 PM
Leviathan 89,999 4 89,999 0 0 0 0 0 0 5/11/19 4:54:30 PM
Ultros 9,259 3 0 9,259 0 0 0 0 0 5/9/19 7:23:12 PM
HQ
i

Requests for Kudzu Cap of Crafting

Click for Discord- Item Requests